Time;durP1;ratioP1;P1;durP2;ratioP2;P2;SDS_P1;SDS_P2;PMS_P1;PMS_P2;Temp;Humidity;BMP_temperature;BMP_pressure;BME280_temperature;BME280_humidity;BME280_pressure;Samples;Min_cycle;Max_cycle;Signal;HPM_P1;HPM_P2
2020/12/29 00:01:35;;;;;;;20.25;11.95;;;;;;;3.17;92.52;98135.66;5069561;28;20075;-61
2020/12/29 00:04:03;;;;;;;15.07;9.65;;;;;;;3.16;92.55;98145.03;5078940;28;20052;-59
2020/12/29 00:06:29;;;;;;;19.33;11.15;;;;;;;3.14;92.65;98135.47;5089845;28;20048;-64
2020/12/29 00:08:56;;;;;;;19.75;11.30;;;;;;;3.14;92.75;98143.72;5083057;28;20499;-61
2020/12/29 00:11:23;;;;;;;20.13;12.20;;;;;;;3.13;92.67;98134.66;5069722;28;20533;-63
2020/12/29 00:13:50;;;;;;;13.88;8.93;;;;;;;3.13;92.40;98133.84;5073938;28;20151;-58
2020/12/29 00:16:18;;;;;;;13.60;7.85;;;;;;;3.13;92.61;98144.84;5090056;28;20495;-58
2020/12/29 00:18:45;;;;;;;16.95;10.52;;;;;;;3.12;92.64;98144.03;5090593;28;20071;-63
2020/12/29 00:21:19;;;;;;;24.50;15.15;;;;;;;3.13;92.84;98142.91;5073100;28;20470;-63
2020/12/29 00:23:47;;;;;;;23.30;15.13;;;;;;;3.11;92.67;98148.75;5074763;28;20135;-59
2020/12/29 00:26:14;;;;;;;26.30;15.57;;;;;;;3.09;92.70;98151.00;5093476;28;20123;-61
2020/12/29 00:28:41;;;;;;;21.55;13.13;;;;;;;3.09;92.81;98147.44;5091643;28;20410;-63
2020/12/29 00:31:08;;;;;;;24.23;13.95;;;;;;;3.09;92.80;98151.00;5073387;28;21298;-61
2020/12/29 00:33:36;;;;;;;27.65;15.50;;;;;;;3.10;92.82;98147.13;5073605;28;20414;-60
2020/12/29 00:36:06;;;;;;;23.55;14.10;;;;;;;3.12;92.83;98149.56;5088368;28;20099;-62
2020/12/29 00:38:32;;;;;;;23.25;13.02;;;;;;;3.13;92.99;98142.09;5093511;28;20048;-62
2020/12/29 00:40:59;;;;;;;20.67;11.95;;;;;;;3.15;92.86;98145.34;5077473;28;20356;-60
2020/12/29 00:43:26;;;;;;;25.40;14.75;;;;;;;3.17;92.75;98146.66;5072207;28;20052;-59
2020/12/29 00:45:53;;;;;;;17.73;10.80;;;;;;;3.18;92.79;98144.72;5085853;28;20136;-60
2020/12/29 00:48:19;;;;;;;20.33;12.40;;;;;;;3.17;92.73;98146.66;5093202;28;20567;-60
2020/12/29 00:50:47;;;;;;;16.00;10.27;;;;;;;3.19;92.76;98158.19;5081445;28;20076;-62
2020/12/29 00:53:15;;;;;;;21.05;12.13;;;;;;;3.19;92.83;98155.44;5071613;28;20179;-59
2020/12/29 00:55:48;;;;;;;20.98;12.40;;;;;;;3.20;92.80;98153.50;5080324;28;20044;-61
2020/12/29 00:58:15;;;;;;;21.73;12.02;;;;;;;3.20;92.73;98151.53;5091885;28;20059;-60
2020/12/29 01:00:42;;;;;;;21.05;13.38;;;;;;;3.20;92.58;98147.97;5085231;28;20437;-59
2020/12/29 01:03:09;;;;;;;25.40;15.52;;;;;;;3.20;92.85;98153.50;5072092;28;20044;-63
2020/12/29 01:05:36;;;;;;;22.95;12.65;;;;;;;3.20;92.79;98154.28;5076158;28;20035;-64
2020/12/29 01:08:04;;;;;;;16.92;10.45;;;;;;;3.22;92.75;98164.97;5092564;28;20047;-60
2020/12/29 01:10:43;;;;;;;18.67;11.13;;;;;;;3.22;92.98;98162.22;5086285;28;20130;-58
2020/12/29 01:13:30;;;;;;;24.13;12.93;;;;;;;3.20;92.86;98165.31;5071230;28;20071;-64
2020/12/29 01:15:58;;;;;;;23.20;12.93;;;;;;;3.22;92.79;98171.31;5076407;28;20390;-62
2020/12/29 01:18:27;;;;;;;27.45;15.98;;;;;;;3.21;92.71;98169.69;5070479;28;20049;-58
2020/12/29 01:20:54;;;;;;;26.27;16.10;;;;;;;3.21;92.80;98174.38;5075144;28;20989;-62
2020/12/29 01:23:21;;;;;;;24.20;14.25;;;;;;;3.22;92.88;98179.56;5092342;28;20471;-62
2020/12/29 01:25:48;;;;;;;28.45;16.70;;;;;;;3.24;92.84;98182.00;5090507;28;20499;-61
2020/12/29 01:28:15;;;;;;;24.88;15.18;;;;;;;3.23;92.74;98183.16;5071639;28;20040;-59
2020/12/29 01:30:42;;;;;;;18.73;11.10;;;;;;;3.24;92.83;98182.00;5071927;28;20099;-62
2020/12/29 01:33:09;;;;;;;22.67;14.02;;;;;;;3.24;92.82;98188.34;5090369;28;20044;-61
2020/12/29 01:35:36;;;;;;;19.25;10.88;;;;;;;3.26;92.86;98185.28;5092167;28;20394;-60
2020/12/29 01:38:05;;;;;;;20.88;11.68;;;;;;;3.27;92.75;98184.16;5074641;28;20410;-61
2020/12/29 01:40:33;;;;;;;19.98;12.32;;;;;;;3.28;92.83;98185.78;5072286;28;20072;-64
2020/12/29 01:43:00;;;;;;;26.83;15.52;;;;;;;3.27;92.80;98187.72;5086328;28;20161;-64
2020/12/29 01:45:27;;;;;;;23.98;13.57;;;;;;;3.29;92.89;98190.16;5091388;28;20486;-64
2020/12/29 01:47:54;;;;;;;20.05;11.60;;;;;;;3.28;92.93;98194.84;5078650;28;20050;-61
2020/12/29 01:50:23;;;;;;;25.50;14.65;;;;;;;3.29;92.81;98192.91;5071522;28;20118;-63
2020/12/29 01:52:59;;;;;;;23.48;12.48;;;;;;;3.29;92.83;98195.66;5081594;28;20052;-61
2020/12/29 01:55:27;;;;;;;25.73;15.43;;;;;;;3.28;92.82;98200.38;5091906;28;20044;-63
2020/12/29 01:57:56;;;;;;;28.63;17.13;;;;;;;3.30;92.90;98205.56;5081494;28;20150;-62
2020/12/29 02:00:23;;;;;;;30.67;17.77;;;;;;;3.30;93.02;98202.81;5070791;28;20044;-61
2020/12/29 02:02:50;;;;;;;25.35;15.52;;;;;;;3.29;92.88;98207.50;5079043;28;20050;-61
2020/12/29 02:05:17;;;;;;;28.55;16.70;;;;;;;3.29;92.90;98202.00;5091762;28;20135;-64
2020/12/29 02:07:48;;;;;;;22.48;12.85;;;;;;;3.30;92.83;98208.31;5085145;28;20127;-61
2020/12/29 02:10:16;;;;;;;19.48;12.18;;;;;;;3.29;92.87;98210.25;5071439;28;20047;-63
2020/12/29 02:12:43;;;;;;;18.20;10.90;;;;;;;3.30;92.98;98206.38;5074866;28;20044;-64
2020/12/29 02:15:10;;;;;;;24.10;12.80;;;;;;;3.31;92.97;98208.00;5090813;28;20052;-63
2020/12/29 02:17:37;;;;;;;20.23;11.50;;;;;;;3.33;92.89;98210.44;5089324;28;20401;-61
2020/12/29 02:20:06;;;;;;;22.60;13.77;;;;;;;3.34;92.89;98212.06;5070418;28;20517;-63
2020/12/29 02:22:33;;;;;;;18.88;10.70;;;;;;;3.33;92.80;98211.25;5071126;28;20048;-61
2020/12/29 02:25:02;;;;;;;17.63;10.50;;;;;;;3.33;92.86;98207.69;5074002;28;20376;-59
2020/12/29 02:27:30;;;;;;;16.63;9.55;;;;;;;3.32;92.87;98214.31;5090741;28;20474;-59
2020/12/29 02:29:58;;;;;;;15.68;9.07;;;;;;;3.31;92.90;98215.47;5072524;28;20044;-59
2020/12/29 02:32:26;;;;;;;14.07;8.20;;;;;;;3.30;92.78;98214.63;5071236;28;20052;-59
2020/12/29 02:34:53;;;;;;;13.32;8.18;;;;;;;3.29;92.89;98214.97;5086418;28;20490;-60
2020/12/29 02:37:21;;;;;;;19.05;12.05;;;;;;;3.27;93.01;98215.28;5091096;28;20050;-60
2020/12/29 02:39:52;;;;;;;19.13;10.55;;;;;;;3.27;92.91;98217.22;5076409;28;20491;-64
2020/12/29 02:42:19;;;;;;;15.15;9.15;;;;;;;3.25;93.05;98219.47;5070423;28;20048;-59
2020/12/29 02:44:46;;;;;;;19.60;12.27;;;;;;;3.24;92.96;98220.59;5082938;28;20140;-62
2020/12/29 02:47:13;;;;;;;14.88;8.63;;;;;;;3.26;93.12;98221.09;5072988;28;20491;-65
2020/12/29 02:49:39;;;;;;;15.00;9.13;;;;;;;3.24;92.92;98224.16;5079114;28;20460;-64
2020/12/29 02:52:07;;;;;;;24.33;13.85;;;;;;;3.25;93.01;98224.97;5091122;28;20048;-62
2020/12/29 02:54:34;;;;;;;17.85;10.60;;;;;;;3.25;93.07;98227.72;5082407;28;20132;-64
2020/12/29 02:57:02;;;;;;;15.55;9.25;;;;;;;3.26;92.85;98226.59;5070220;28;20395;-63
2020/12/29 02:59:29;;;;;;;16.42;8.90;;;;;;;3.24;93.00;98223.34;5076329;28;20040;-60
2020/12/29 03:01:56;;;;;;;15.50;8.90;;;;;;;3.25;93.20;98230.50;5090780;28;20510;-62
2020/12/29 03:04:23;;;;;;;13.68;8.80;;;;;;;3.24;93.39;98228.84;5086303;28;20042;-62
2020/12/29 03:06:50;;;;;;;19.48;10.98;;;;;;;3.24;93.03;98232.44;5070735;28;20050;-60
2020/12/29 03:09:17;;;;;;;22.63;13.35;;;;;;;3.24;93.05;98234.38;5071226;28;20131;-59
2020/12/29 03:11:45;;;;;;;15.43;9.35;;;;;;;3.24;93.10;98239.88;5090453;28;20036;-63
2020/12/29 03:14:13;;;;;;;15.60;9.73;;;;;;;3.25;93.11;98244.25;5090992;28;20075;-63
2020/12/29 03:16:40;;;;;;;18.95;10.45;;;;;;;3.24;93.17;98242.63;5068462;28;20109;-64
2020/12/29 03:19:21;;;;;;;14.93;8.63;;;;;;;3.24;93.21;98250.91;5070582;28;20102;-64
2020/12/29 03:21:49;;;;;;;13.95;8.07;;;;;;;3.23;93.15;98252.84;5089155;28;20093;-64
2020/12/29 03:24:16;;;;;;;24.77;14.80;;;;;;;3.25;93.12;98247.03;5090456;28;20131;-62
2020/12/29 03:26:43;;;;;;;23.48;12.90;;;;;;;3.25;93.14;98258.84;5072635;28;20098;-62
2020/12/29 03:29:10;;;;;;;14.02;8.13;;;;;;;3.25;93.14;98261.63;5069334;28;20131;-63
2020/12/29 03:31:43;;;;;;;20.00;12.02;;;;;;;3.24;93.11;98257.22;5084787;28;20391;-61
2020/12/29 03:34:10;;;;;;;14.32;8.07;;;;;;;3.24;93.13;98259.16;5090540;28;20490;-63
2020/12/29 03:36:38;;;;;;;12.75;7.65;;;;;;;3.24;93.18;98268.25;5076493;28;20036;-62
2020/12/29 03:39:04;;;;;;;12.18;7.28;;;;;;;3.24;93.34;98267.44;5069780;28;20148;-63
2020/12/29 03:41:31;;;;;;;12.55;8.02;;;;;;;3.25;93.19;98264.38;5081571;28;20064;-64
2020/12/29 03:43:58;;;;;;;17.15;10.43;;;;;;;3.26;93.21;98266.00;5090615;28;20048;-62
2020/12/29 03:46:25;;;;;;;15.98;10.27;;;;;;;3.27;93.19;98266.81;5087034;28;20131;-64
2020/12/29 03:48:53;;;;;;;13.10;7.78;;;;;;;3.27;93.27;98270.38;5090212;28;20044;-61
2020/12/29 03:51:20;;;;;;;18.63;11.05;;;;;;;3.27;93.32;98278.66;5083208;28;20471;-61
2020/12/29 03:53:46;;;;;;;14.30;8.15;;;;;;;3.27;93.23;98277.84;5073270;28;20047;-62
2020/12/29 03:56:13;;;;;;;15.05;8.73;;;;;;;3.26;93.21;98265.19;5078382;28;20139;-63
2020/12/29 03:58:40;;;;;;;12.02;7.13;;;;;;;3.27;93.23;98275.09;5093504;28;20071;-64
2020/12/29 04:01:07;;;;;;;11.82;6.93;;;;;;;3.28;93.17;98273.94;5088080;28;20094;-61
2020/12/29 04:03:34;;;;;;;12.90;7.65;;;;;;;3.27;93.13;98275.91;5094683;28;20079;-64
2020/12/29 04:06:01;;;;;;;11.73;6.78;;;;;;;3.26;93.18;98274.28;5093157;28;20391;-63
2020/12/29 04:08:28;;;;;;;12.68;7.18;;;;;;;3.27;93.27;98277.84;5074067;28;20041;-64
2020/12/29 04:10:55;;;;;;;16.40;9.65;;;;;;;3.28;93.40;98280.28;5074547;28;20058;-63
2020/12/29 04:13:21;;;;;;;12.75;7.38;;;;;;;3.26;93.14;98278.97;5091726;28;20062;-63
2020/12/29 04:15:48;;;;;;;12.43;7.32;;;;;;;3.26;93.19;98279.78;5094897;28;20530;-61
2020/12/29 04:18:15;;;;;;;11.88;7.18;;;;;;;3.27;93.10;98280.59;5078443;28;20063;-63
2020/12/29 04:20:42;;;;;;;12.88;7.03;;;;;;;3.26;93.36;98284.47;5073893;28;20135;-63
2020/12/29 04:23:09;;;;;;;12.95;7.55;;;;;;;3.26;93.21;98281.72;5087364;28;20044;-63
2020/12/29 04:25:36;;;;;;;12.10;7.30;;;;;;;3.26;93.25;98287.22;5094386;28;20047;-64
2020/12/29 04:28:03;;;;;;;11.63;6.80;;;;;;;3.27;93.18;98292.44;5082198;28;20045;-63
2020/12/29 04:30:29;;;;;;;12.85;8.10;;;;;;;3.27;93.30;98291.63;5074146;28;20537;-64
2020/12/29 04:32:56;;;;;;;20.55;12.35;;;;;;;3.27;93.18;98292.44;5082626;28;20036;-64
2020/12/29 04:35:23;;;;;;;18.38;11.15;;;;;;;3.26;93.22;98288.03;5093927;28;20043;-64
2020/12/29 04:37:50;;;;;;;18.95;11.00;;;;;;;3.24;93.24;98290.31;5087517;28;20087;-64
2020/12/29 04:40:17;;;;;;;13.40;8.05;;;;;;;3.23;93.15;98291.44;5074227;28;20154;-63
2020/12/29 04:42:44;;;;;;;22.80;14.18;;;;;;;3.21;93.18;98290.94;5077483;28;20075;-63
2020/12/29 04:45:11;;;;;;;20.20;12.15;;;;;;;3.19;93.13;98301.47;5093657;28;20080;-64
2020/12/29 04:47:40;;;;;;;14.80;8.18;;;;;;;3.19;93.17;98304.22;5091759;28;20044;-63
2020/12/29 04:50:07;;;;;;;14.77;8.48;;;;;;;3.18;93.13;98302.59;5073416;28;20062;-64
2020/12/29 04:52:36;;;;;;;13.48;7.78;;;;;;;3.17;93.35;98306.47;5073980;28;20048;-63
2020/12/29 04:55:28;;;;;;;13.73;7.60;;;;;;;3.16;93.15;98310.34;5093353;28;20380;-63
2020/12/29 04:57:55;;;;;;;12.25;7.15;;;;;;;3.14;93.34;98315.38;5092264;28;20568;-64
2020/12/29 05:00:23;;;;;;;18.90;11.40;;;;;;;3.14;93.31;98323.63;5093632;28;20040;-63
2020/12/29 05:02:50;;;;;;;13.35;7.97;;;;;;;3.14;93.17;98323.63;5093187;28;20090;-64
2020/12/29 05:05:16;;;;;;;16.13;9.57;;;;;;;3.14;93.31;98322.81;5072645;28;20064;-62
2020/12/29 05:07:44;;;;;;;19.92;10.60;;;;;;;3.13;93.09;98326.69;5073568;28;20479;-61
2020/12/29 05:10:11;;;;;;;19.48;11.38;;;;;;;3.11;93.20;98325.06;5090125;28;20123;-64
2020/12/29 05:12:48;;;;;;;13.30;8.00;;;;;;;3.11;93.25;98325.06;5093944;28;20044;-62
2020/12/29 05:15:16;;;;;;;23.13;13.60;;;;;;;3.09;93.27;98329.25;5076747;28;20131;-65
2020/12/29 05:17:42;;;;;;;14.30;8.75;;;;;;;3.08;93.39;98333.94;5072721;28;20131;-64
2020/12/29 05:20:09;;;;;;;14.35;8.73;;;;;;;3.07;93.31;98335.06;5087524;28;20052;-64
2020/12/29 05:22:38;;;;;;;14.50;9.15;;;;;;;3.08;93.39;98336.72;5093340;28;20048;-62
2020/12/29 05:25:06;;;;;;;19.35;12.55;;;;;;;3.08;93.24;98350.47;5083779;28;20089;-65
2020/12/29 05:27:37;;;;;;;23.05;14.65;;;;;;;3.06;93.38;98349.97;5089515;28;20051;-64
2020/12/29 05:30:05;;;;;;;19.48;11.77;;;;;;;3.03;93.16;98353.34;5081924;28;20128;-63
2020/12/29 05:32:37;;;;;;;13.15;7.65;;;;;;;3.02;93.18;98354.47;5073042;28;20127;-65
2020/12/29 05:35:10;;;;;;;14.38;8.35;;;;;;;3.01;93.39;98355.59;5081773;28;20123;-62
2020/12/29 05:37:37;;;;;;;;;;;;;;;2.97;93.22;98356.56;5093219;28;20083;-63
2020/12/29 05:40:22;;;;;;;12.55;7.18;;;;;;;2.96;93.65;98357.69;5083696;28;19924;-61
2020/12/29 05:42:49;;;;;;;19.02;11.85;;;;;;;2.98;93.50;98364.50;5072781;28;20484;-63
2020/12/29 05:45:17;;;;;;;14.13;7.93;;;;;;;3.00;93.57;98358.66;5078629;28;20052;-63
2020/12/29 05:47:46;;;;;;;12.75;7.57;;;;;;;2.99;93.56;98365.31;5092709;28;20507;-65
2020/12/29 05:50:14;;;;;;;13.07;8.20;;;;;;;2.98;93.29;98370.03;5086374;28;20080;-62
2020/12/29 05:52:42;;;;;;;12.13;6.90;;;;;;;2.98;93.37;98369.19;5071991;28;20556;-64
2020/12/29 05:55:10;;;;;;;17.23;10.60;;;;;;;2.99;93.41;98376.34;5076951;28;20075;-66
2020/12/29 05:57:36;;;;;;;11.13;6.72;;;;;;;2.97;93.39;98373.91;5092730;28;20486;-67
2020/12/29 06:00:05;;;;;;;20.60;13.00;;;;;;;2.98;93.23;98380.22;5089630;28;20036;-68
2020/12/29 06:02:32;;;;;;;18.70;11.82;;;;;;;2.96;93.36;98377.78;5072528;28;20059;-68
2020/12/29 06:05:01;;;;;;;21.85;13.52;;;;;;;2.96;93.41;98379.72;5072632;28;20331;-68
2020/12/29 06:07:30;;;;;;;13.88;7.35;;;;;;;2.95;93.35;98386.34;5070657;28;20548;-67
2020/12/29 06:10:00;;;;;;;11.80;6.82;;;;;;;2.95;93.41;98386.34;5071264;28;20068;-67
2020/12/29 06:12:32;;;;;;;12.45;7.28;;;;;;;2.95;93.52;98383.59;5089334;28;20556;-67
2020/12/29 06:14:58;;;;;;;11.30;6.78;;;;;;;2.95;93.41;98387.16;5092569;28;20046;-67
2020/12/29 06:17:41;;;;;;;11.75;7.07;;;;;;;2.96;93.43;98383.28;5074455;28;20127;-66
2020/12/29 06:20:16;;;;;;;10.57;6.10;;;;;;;2.94;93.46;98396.53;5071820;28;20048;-65
2020/12/29 06:22:45;;;;;;;12.13;7.47;;;;;;;2.97;93.59;98397.88;5090412;28;20044;-65
2020/12/29 06:25:16;;;;;;;11.75;7.03;;;;;;;2.97;93.66;98406.94;5092335;28;20406;-64
2020/12/29 06:27:50;;;;;;;12.63;7.47;;;;;;;3.00;93.58;98411.00;5073887;28;20553;-65
2020/12/29 06:30:18;;;;;;;10.73;6.55;;;;;;;3.00;93.40;98413.75;5072325;28;20527;-63
2020/12/29 06:32:48;;;;;;;16.05;9.00;;;;;;;3.01;93.60;98415.38;5087713;28;20048;-63
2020/12/29 06:35:16;;;;;;;22.83;14.38;;;;;;;3.02;93.52;98417.84;5091440;28;20039;-65
2020/12/29 06:37:50;;;;;;;15.63;9.90;;;;;;;3.02;93.24;98420.59;5075739;28;20051;-63
2020/12/29 06:40:20;;;;;;;17.38;10.73;;;;;;;3.01;93.41;98424.47;5071264;28;20045;-64
2020/12/29 06:42:47;;;;;;;19.48;11.27;;;;;;;3.04;93.55;98426.59;5085253;28;20036;-63
2020/12/29 06:45:15;;;;;;;13.63;7.88;;;;;;;3.05;93.69;98431.00;5091865;28;20422;-62
2020/12/29 06:47:44;;;;;;;13.55;8.25;;;;;;;3.08;93.65;98429.56;5079678;28;20380;-63
2020/12/29 06:50:24;;;;;;;14.75;8.52;;;;;;;3.10;93.51;98439.16;5070238;28;20053;-63
2020/12/29 06:52:58;;;;;;;16.35;9.65;;;;;;;3.11;93.52;98445.47;5081320;28;20143;-65
2020/12/29 06:55:29;;;;;;;17.55;8.98;;;;;;;3.14;93.57;98449.56;5091457;28;20127;-64
2020/12/29 06:57:55;;;;;;;17.40;10.23;;;;;;;3.15;93.47;98454.75;5081470;28;20136;-63
2020/12/29 07:00:24;;;;;;;21.05;12.52;;;;;;;3.18;93.59;98451.41;5071367;28;20048;-65
2020/12/29 07:02:53;;;;;;;18.35;10.85;;;;;;;3.21;93.59;98466.47;5078878;28;21282;-62
2020/12/29 07:05:22;;;;;;;22.73;14.02;;;;;;;3.24;93.59;98463.09;5092023;28;20660;-66
2020/12/29 07:07:55;;;;;;;15.75;9.38;;;;;;;3.24;93.43;98474.94;5084537;28;20101;-62
2020/12/29 07:10:26;;;;;;;13.70;7.88;;;;;;;3.25;93.47;98473.00;5071004;28;20123;-64
2020/12/29 07:12:53;;;;;;;26.27;15.57;;;;;;;3.27;93.58;98476.25;5076762;28;20105;-64
2020/12/29 07:15:22;;;;;;;15.05;8.38;;;;;;;3.28;93.45;98481.47;5091570;28;20395;-64
2020/12/29 07:18:00;;;;;;;20.38;12.02;;;;;;;3.32;93.50;98484.44;5087431;28;20188;-62
2020/12/29 07:20:32;;;;;;;19.08;11.90;;;;;;;3.32;93.44;98484.44;5071420;28;20531;-62
2020/12/29 07:23:04;;;;;;;19.60;11.48;;;;;;;3.32;93.26;98479.72;5074199;28;20044;-64
2020/12/29 07:25:33;;;;;;;21.80;12.90;;;;;;;3.32;93.57;98485.25;5091198;28;20048;-65
2020/12/29 07:28:02;;;;;;;19.92;12.07;;;;;;;3.34;93.52;98483.00;5091699;28;20052;-66
2020/12/29 07:30:29;;;;;;;16.52;9.75;;;;;;;3.36;93.52;98497.28;5074837;28;20041;-63
2020/12/29 07:33:01;;;;;;;20.10;11.82;;;;;;;3.36;93.56;98494.53;5075821;28;20398;-62
2020/12/29 07:35:32;;;;;;;23.42;14.32;;;;;;;3.38;93.62;98502.50;5094575;28;20443;-65
2020/12/29 07:38:04;;;;;;;17.75;10.55;;;;;;;3.37;93.46;98504.44;5094561;28;20044;-63
2020/12/29 07:40:31;;;;;;;14.65;9.02;;;;;;;3.38;93.47;98510.75;5074753;28;20044;-66
2020/12/29 07:42:57;;;;;;;20.35;11.77;;;;;;;3.38;93.62;98503.31;5074829;28;20114;-64
2020/12/29 07:45:25;;;;;;;27.35;16.13;;;;;;;3.38;93.44;98506.06;5089195;28;20135;-65
2020/12/29 07:47:52;;;;;;;20.70;12.57;;;;;;;3.40;93.37;98519.50;5075241;28;20132;-64
2020/12/29 07:50:18;;;;;;;15.93;9.02;;;;;;;3.41;93.56;98521.94;5090383;28;20105;-63
2020/12/29 07:52:46;;;;;;;15.75;8.52;;;;;;;3.41;93.54;98519.19;5094171;28;20533;-66
2020/12/29 07:55:15;;;;;;;14.38;8.93;;;;;;;3.41;93.52;98527.47;5081053;28;20045;-62
2020/12/29 07:57:43;;;;;;;20.38;11.50;;;;;;;3.42;93.51;98531.84;5074107;28;20044;-62
2020/12/29 08:00:12;;;;;;;22.90;12.88;;;;;;;3.42;93.50;98534.63;5085953;28;20066;-64
2020/12/29 08:02:40;;;;;;;13.45;7.95;;;;;;;3.43;93.39;98540.94;5094693;28;20044;-64
2020/12/29 08:05:08;;;;;;;24.10;12.07;;;;;;;3.44;93.50;98548.09;5083465;28;20115;-61
2020/12/29 08:07:35;;;;;;;19.25;10.32;;;;;;;3.46;93.66;98554.13;5074013;28;20040;-63
2020/12/29 08:10:08;;;;;;;;;;;;;;;3.42;93.59;98553.09;5082860;28;20046;-63
2020/12/29 08:12:36;;;;;;;20.88;11.27;;;;;;;3.42;93.77;98550.34;5073020;28;19920;-64
2020/12/29 08:15:02;;;;;;;15.90;9.23;;;;;;;3.46;93.75;98560.44;5078321;28;20851;-65
2020/12/29 08:17:30;;;;;;;17.02;9.55;;;;;;;3.49;93.71;98572.81;5093827;28;20543;-64
2020/12/29 08:19:58;;;;;;;17.10;9.65;;;;;;;3.52;93.70;98571.38;5088067;28;20064;-65
2020/12/29 08:22:29;;;;;;;20.15;11.32;;;;;;;3.54;93.63;98580.97;5072536;28;20068;-63
2020/12/29 08:24:56;;;;;;;22.33;11.90;;;;;;;3.55;93.54;98577.09;5076392;28;20076;-63
2020/12/29 08:27:24;;;;;;;19.92;11.60;;;;;;;3.55;93.69;98587.31;5076665;28;20060;-62
2020/12/29 08:29:52;;;;;;;13.98;7.85;;;;;;;3.56;93.63;98584.22;5074328;28;20503;-64
2020/12/29 08:32:22;;;;;;;14.90;8.50;;;;;;;3.59;93.55;98591.06;5094078;28;20465;-64
2020/12/29 08:34:50;;;;;;;13.70;8.05;;;;;;;3.60;93.71;98599.00;5094096;28;20477;-63
2020/12/29 08:37:23;;;;;;;14.55;8.00;;;;;;;3.62;93.74;98601.47;5074291;28;20131;-64
2020/12/29 08:40:12;;;;;;;12.25;7.30;;;;;;;3.64;93.68;98605.56;5073592;28;20084;-64
2020/12/29 08:42:52;;;;;;;9.48;5.18;;;;;;;3.63;93.59;98601.16;5071140;28;20082;-67
2020/12/29 08:45:25;;;;;;;10.98;6.20;;;;;;;3.66;93.93;98611.56;5074148;28;20481;-62
2020/12/29 08:47:54;;;;;;;7.90;4.60;;;;;;;3.68;93.72;98614.84;5093695;28;20080;-63
2020/12/29 08:50:23;;;;;;;10.35;5.70;;;;;;;3.70;93.44;98612.59;5093842;28;20529;-63
2020/12/29 08:52:53;;;;;;;6.03;2.83;;;;;;;3.73;93.59;98613.91;5073799;28;20048;-61
2020/12/29 08:55:28;;;;;;;7.90;3.75;;;;;;;3.74;93.69;98619.13;5073460;28;20241;-61
2020/12/29 08:57:57;;;;;;;8.15;4.80;;;;;;;3.75;93.65;98620.75;5092373;28;20047;-63
2020/12/29 09:00:24;;;;;;;11.13;5.45;;;;;;;3.77;93.67;98626.78;5093752;28;20064;-63
2020/12/29 09:02:53;;;;;;;6.55;4.25;;;;;;;3.77;93.71;98629.56;5073690;28;20048;-62
2020/12/29 09:05:24;;;;;;;6.32;3.67;;;;;;;3.78;93.66;98636.69;5070528;28;20044;-61
2020/12/29 09:07:51;;;;;;;4.85;2.70;;;;;;;3.79;93.76;98634.75;5088550;28;20051;-64
2020/12/29 09:10:19;;;;;;;6.85;4.57;;;;;;;3.81;93.54;98641.56;5092994;28;20135;-63
2020/12/29 09:12:47;;;;;;;6.00;3.40;;;;;;;3.82;93.76;98628.59;5079976;28;20094;-62
2020/12/29 09:15:24;;;;;;;7.57;3.88;;;;;;;3.84;93.70;98644.84;5072100;28;20124;-63
2020/12/29 09:17:57;;;;;;;9.48;4.93;;;;;;;3.85;93.73;98640.97;5085559;28;20048;-63
2020/12/29 09:20:28;;;;;;;4.60;2.78;;;;;;;3.86;93.79;98645.34;5093280;28;20436;-62
2020/12/29 09:23:00;;;;;;;4.35;2.67;;;;;;;3.87;93.85;98650.56;5080794;28;20048;-62
2020/12/29 09:25:32;;;;;;;3.80;1.90;;;;;;;3.89;93.69;98653.84;5072971;28;20048;-62
2020/12/29 09:28:11;;;;;;;5.32;2.90;;;;;;;3.92;93.73;98657.91;5083772;28;20100;-64
2020/12/29 09:30:42;;;;;;;6.32;3.45;;;;;;;3.94;93.88;98662.00;5092298;28;20506;-63
2020/12/29 09:33:09;;;;;;;7.57;4.03;;;;;;;3.96;93.87;98665.28;5086079;28;20044;-63
2020/12/29 09:35:36;;;;;;;6.60;3.28;;;;;;;4.00;93.76;98670.97;5087128;28;20040;-64
2020/12/29 09:38:03;;;;;;;5.03;2.70;;;;;;;4.01;93.66;98669.84;5087619;28;20120;-62
2020/12/29 09:40:50;;;;;;;7.53;4.40;;;;;;;4.02;93.69;98680.56;5087910;28;20048;-63
2020/12/29 09:43:17;;;;;;;7.88;4.13;;;;;;;4.04;93.63;98686.59;5087091;28;20502;-61
2020/12/29 09:45:45;;;;;;;6.70;3.78;;;;;;;4.06;93.80;98686.28;5085474;28;20123;-64
2020/12/29 09:48:12;;;;;;;6.60;3.47;;;;;;;4.06;93.70;98697.34;5090074;28;20147;-62
2020/12/29 09:50:39;;;;;;;6.75;3.65;;;;;;;4.08;93.81;98701.41;5081690;28;20565;-62
2020/12/29 09:53:06;;;;;;;5.88;3.58;;;;;;;4.10;93.75;98706.63;5091241;28;20036;-63
2020/12/29 09:55:32;;;;;;;4.47;2.97;;;;;;;4.12;93.95;98702.44;5081229;28;20040;-63
2020/12/29 09:57:59;;;;;;;6.10;3.58;;;;;;;4.14;93.96;98705.72;5090630;28;20051;-61
2020/12/29 10:00:26;;;;;;;6.85;3.60;;;;;;;4.17;93.81;98708.97;5081463;28;20042;-62
2020/12/29 10:02:53;;;;;;;5.35;3.17;;;;;;;4.21;93.92;98709.97;5092734;28;20109;-63
2020/12/29 10:05:20;;;;;;;6.95;3.20;;;;;;;4.23;94.06;98714.06;5082561;28;20048;-62
2020/12/29 10:07:47;;;;;;;4.00;2.30;;;;;;;4.27;94.02;98723.38;5072656;28;20140;-61
2020/12/29 10:10:14;;;;;;;4.55;2.70;;;;;;;4.31;93.82;98720.81;5084598;28;20051;-63
2020/12/29 10:12:40;;;;;;;5.25;3.30;;;;;;;4.34;93.97;98721.00;5071846;28;20127;-64
2020/12/29 10:15:08;;;;;;;4.10;2.03;;;;;;;4.38;94.03;98729.47;5087680;28;20603;-64
2020/12/29 10:17:34;;;;;;;3.85;2.20;;;;;;;4.41;93.79;98732.41;5092393;28;20052;-65
2020/12/29 10:20:02;;;;;;;3.40;1.83;;;;;;;4.43;93.67;98732.94;5077425;28;20072;-63
2020/12/29 10:22:30;;;;;;;3.25;1.73;;;;;;;4.44;93.94;98740.09;5071909;28;20065;-65
2020/12/29 10:24:56;;;;;;;2.60;1.67;;;;;;;4.47;93.74;98738.66;5083438;28;20054;-63
2020/12/29 10:27:24;;;;;;;3.15;1.73;;;;;;;4.50;93.71;98741.63;5091347;28;20586;-64
2020/12/29 10:29:51;;;;;;;5.70;2.50;;;;;;;4.52;93.67;98744.06;5086856;28;20067;-62
2020/12/29 10:32:20;;;;;;;2.97;1.60;;;;;;;4.55;93.96;98748.16;5084693;28;20122;-62
2020/12/29 10:34:47;;;;;;;3.50;1.30;;;;;;;4.58;93.72;98739.25;5084166;28;20128;-62
2020/12/29 10:37:14;;;;;;;3.75;1.60;;;;;;;4.61;93.89;98744.13;5071569;28;20119;-64
2020/12/29 10:39:42;;;;;;;3.38;1.98;;;;;;;4.64;93.94;98743.50;5072241;28;20033;-62
2020/12/29 10:42:09;;;;;;;2.80;1.38;;;;;;;4.67;93.95;98738.19;5082946;28;20474;-64
2020/12/29 10:44:36;;;;;;;3.70;1.60;;;;;;;4.71;93.73;98743.91;5072474;28;20510;-65
2020/12/29 10:47:03;;;;;;;3.70;1.60;;;;;;;4.75;93.72;98736.63;5082167;28;20051;-63
2020/12/29 10:49:31;;;;;;;3.05;1.17;;;;;;;4.78;94.01;98741.53;5071394;28;20053;-62
2020/12/29 10:51:57;;;;;;;2.97;1.50;;;;;;;4.83;93.78;98741.38;5083673;28;20055;-65
2020/12/29 10:54:25;;;;;;;3.05;1.70;;;;;;;4.87;94.17;98741.59;5071094;28;20045;-65
2020/12/29 10:56:52;;;;;;;2.30;1.30;;;;;;;4.91;94.03;98746.16;5083699;28;20077;-62
2020/12/29 10:59:18;;;;;;;3.53;1.50;;;;;;;4.94;93.97;98742.78;5071680;28;20070;-62
2020/12/29 11:01:45;;;;;;;4.47;1.80;;;;;;;4.99;93.88;98739.91;5083110;28;20127;-63
2020/12/29 11:04:12;;;;;;;2.65;1.27;;;;;;;5.02;93.72;98752.25;5071167;28;20131;-61
2020/12/29 11:06:39;;;;;;;2.60;1.52;;;;;;;5.06;93.66;98753.25;5084991;28;20486;-64
2020/12/29 11:09:05;;;;;;;1.98;1.20;;;;;;;5.07;93.76;98755.72;5091025;28;20083;-63
2020/12/29 11:11:33;;;;;;;2.55;1.48;;;;;;;5.08;93.49;98751.81;5079635;28;20037;-63
2020/12/29 11:14:00;;;;;;;2.67;1.67;;;;;;;5.11;93.63;98753.16;5071180;28;20139;-64
2020/12/29 11:16:27;;;;;;;4.13;1.90;;;;;;;5.14;93.62;98761.63;5080259;28;20119;-65
2020/12/29 11:18:54;;;;;;;2.97;1.67;;;;;;;5.17;93.50;98766.53;5091889;28;20048;-66
2020/12/29 11:21:21;;;;;;;3.10;1.98;;;;;;;5.22;93.69;98768.31;5082210;28;20076;-67
2020/12/29 11:23:48;;;;;;;3.83;1.73;;;;;;;5.26;93.37;98776.81;5070696;28;20124;-68
2020/12/29 11:26:16;;;;;;;3.92;1.63;;;;;;;5.29;93.12;98777.00;5076038;28;20047;-68
2020/12/29 11:28:43;;;;;;;4.00;1.75;;;;;;;5.32;93.27;98773.63;5090644;28;20108;-68
2020/12/29 11:31:12;;;;;;;4.85;1.75;;;;;;;5.34;92.98;98778.84;5088156;28;20108;-69
2020/12/29 11:33:39;;;;;;;3.42;1.90;;;;;;;5.34;92.90;98778.84;5071022;28;20047;-69
2020/12/29 11:36:06;;;;;;;4.93;2.00;;;;;;;5.35;93.20;98784.06;5071474;28;20072;-69
2020/12/29 11:38:33;;;;;;;2.35;1.42;;;;;;;5.37;93.22;98789.28;5091001;28;20086;-69